Time;durP1;ratioP1;P1;durP2;ratioP2;P2;SDS_P1;SDS_P2;PMS_P1;PMS_P2;Temp;Humidity;BMP_temperature;BMP_pressure;BME280_temperature;BME280_humidity;BME280_pressure;Samples;Min_cycle;Max_cycle;Signal;HPM_P1;HPM_P2
2022/07/21 00:02:00;;;;;;;6.30;3.30;;;26.40;58.70;;;;;;5047384;28;20199;-77
2022/07/21 00:04:28;;;;;;;5.87;3.57;;;26.40;58.90;;;;;;5041464;28;20203;-77
2022/07/21 00:06:55;;;;;;;8.20;3.43;;;26.30;59.10;;;;;;5038482;28;20219;-77
2022/07/21 00:09:22;;;;;;;9.53;3.43;;;26.30;59.60;;;;;;5027318;28;20208;-77
2022/07/21 00:11:49;;;;;;;10.10;3.10;;;26.20;59.80;;;;;;5044319;28;20621;-77
2022/07/21 00:14:17;;;;;;;7.40;3.50;;;26.20;60.00;;;;;;5042943;28;20252;-77
2022/07/21 00:16:45;;;;;;;14.33;2.87;;;26.20;60.20;;;;;;5042736;28;21556;-77
2022/07/21 00:19:12;;;;;;;4.20;2.70;;;26.10;60.10;;;;;;5046351;28;20213;-77
2022/07/21 00:21:40;;;;;;;5.07;2.93;;;26.10;60.40;;;;;;5044650;28;20240;-77
2022/07/21 00:24:07;;;;;;;3.53;3.00;;;26.00;60.70;;;;;;5045894;28;20298;-77
2022/07/21 00:26:34;;;;;;;5.73;2.93;;;26.00;61.30;;;;;;5041016;28;20733;-77
2022/07/21 00:29:01;;;;;;;6.30;3.40;;;25.90;61.40;;;;;;5045861;28;20287;-77
2022/07/21 00:31:28;;;;;;;9.67;3.63;;;25.90;61.80;;;;;;5044048;28;20216;-77
2022/07/21 00:33:56;;;;;;;5.73;3.20;;;25.80;61.70;;;;;;5043315;28;20197;-77
2022/07/21 00:36:23;;;;;;;6.13;3.33;;;25.70;61.80;;;;;;5043958;28;20282;-77
2022/07/21 00:38:50;;;;;;;5.73;3.40;;;25.70;62.20;;;;;;5046015;28;20555;-77
2022/07/21 00:41:18;;;;;;;4.97;3.30;;;25.60;62.10;;;;;;5044469;28;20571;-77
2022/07/21 00:43:45;;;;;;;4.40;3.03;;;25.60;62.10;;;;;;5042473;28;20567;-77
2022/07/21 00:46:12;;;;;;;6.00;3.60;;;25.60;62.30;;;;;;5047834;28;20241;-77
2022/07/21 00:48:40;;;;;;;9.83;3.40;;;25.50;62.60;;;;;;5043682;28;20203;-77
2022/07/21 00:51:07;;;;;;;6.90;3.20;;;25.50;62.50;;;;;;5041593;28;20235;-77
2022/07/21 00:53:34;;;;;;;4.77;3.23;;;25.50;62.60;;;;;;5045595;28;20195;-77
2022/07/21 00:56:02;;;;;;;4.87;2.60;;;25.40;62.80;;;;;;5037761;28;20191;-77
2022/07/21 00:58:29;;;;;;;7.77;3.70;;;25.40;62.70;;;;;;5026018;28;20297;-77
2022/07/21 01:00:57;;;;;;;4.13;3.50;;;25.40;63.20;;;;;;5051096;28;20206;-77
2022/07/21 01:03:24;;;;;;;6.10;3.47;;;25.40;63.60;;;;;;5039961;28;20219;-77
2022/07/21 01:05:51;;;;;;;7.40;3.47;;;25.30;64.00;;;;;;5041669;28;20222;-77
2022/07/21 01:08:18;;;;;;;5.00;3.50;;;25.20;64.20;;;;;;5045702;28;20229;-77
2022/07/21 01:10:45;;;;;;;3.90;2.77;;;25.20;64.40;;;;;;5050798;28;20706;-77
2022/07/21 01:13:13;;;;;;;6.87;3.53;;;25.20;64.40;;;;;;5037729;28;20604;-77
2022/07/21 01:15:40;;;;;;;7.50;3.73;;;25.20;64.80;;;;;;5044251;28;20193;-77
2022/07/21 01:18:07;;;;;;;7.03;3.30;;;25.10;64.90;;;;;;5044215;28;20252;-77
2022/07/21 01:20:38;;;;;;;4.00;3.30;;;25.10;65.20;;;;;;5043797;28;20207;-77
2022/07/21 01:23:05;;;;;;;6.57;3.03;;;25.00;65.50;;;;;;5044488;28;20217;-77
2022/07/21 01:25:32;;;;;;;7.03;4.10;;;25.00;65.50;;;;;;5039281;28;20203;-77
2022/07/21 01:27:59;;;;;;;11.20;4.03;;;25.00;65.40;;;;;;5038943;28;20234;-77
2022/07/21 01:30:26;;;;;;;5.17;3.40;;;25.00;65.50;;;;;;5042325;28;20682;-77
2022/07/21 01:32:53;;;;;;;6.07;3.50;;;24.90;65.70;;;;;;5044945;28;20203;-77
2022/07/21 01:35:20;;;;;;;6.00;3.07;;;24.90;65.70;;;;;;5039928;28;20279;-77
2022/07/21 01:37:48;;;;;;;16.33;4.10;;;24.80;65.70;;;;;;5041537;28;20607;-77
2022/07/21 01:43:03;;;;;;;6.13;3.30;;;24.70;66.20;;;;;;5042285;28;20230;-77
2022/07/21 01:45:40;;;;;;;6.73;3.73;;;24.60;66.30;;;;;;5044427;28;20202;-77
2022/07/21 01:48:07;;;;;;;5.87;3.00;;;24.60;66.50;;;;;;5073148;28;20230;-77
2022/07/21 01:50:34;;;;;;;5.87;3.10;;;24.60;66.50;;;;;;5044854;28;20561;-77
2022/07/21 01:53:01;;;;;;;5.00;3.80;;;24.50;66.50;;;;;;5046583;28;20195;-77
2022/07/21 01:55:30;;;;;;;4.37;3.60;;;24.60;67.00;;;;;;5040280;28;20643;-77
2022/07/21 01:57:57;;;;;;;5.63;3.07;;;24.50;67.30;;;;;;5040414;28;20203;-77
2022/07/21 02:00:24;;;;;;;8.10;3.17;;;24.50;67.50;;;;;;5045029;28;20208;-77
2022/07/21 02:02:52;;;;;;;4.57;3.17;;;24.50;67.90;;;;;;5040238;28;20261;-77
2022/07/21 02:05:19;;;;;;;6.83;3.60;;;24.40;68.10;;;;;;5043998;28;20207;-77
2022/07/21 02:07:46;;;;;;;7.60;4.00;;;24.50;68.40;;;;;;5039527;28;20231;-77
2022/07/21 02:10:13;;;;;;;3.40;2.90;;;24.40;68.60;;;;;;5040848;28;20519;-77
2022/07/21 02:12:40;;;;;;;6.80;2.80;;;24.50;68.60;;;;;;5041311;28;20199;-77
2022/07/21 02:15:08;;;;;;;4.80;3.40;;;24.40;68.50;;;;;;5042759;28;20271;-77
2022/07/21 02:17:35;;;;;;;4.13;3.70;;;24.40;68.80;;;;;;5038980;28;20203;-77
2022/07/21 02:20:03;;;;;;;6.63;4.03;;;24.30;69.10;;;;;;5048457;28;20248;-77
2022/07/21 02:22:30;;;;;;;4.57;4.17;;;24.30;69.50;;;;;;5045163;28;20218;-77
2022/07/21 02:24:57;;;;;;;5.20;4.17;;;24.30;69.80;;;;;;5043088;28;20287;-77
2022/07/21 02:27:24;;;;;;;10.77;4.03;;;24.30;70.10;;;;;;5049039;28;20242;-77
2022/07/21 02:29:51;;;;;;;4.93;3.20;;;24.20;70.30;;;;;;5049018;28;20214;-77
2022/07/21 02:32:18;;;;;;;6.60;3.30;;;24.20;69.90;;;;;;5038885;28;20240;-77
2022/07/21 02:34:45;;;;;;;9.03;3.83;;;24.20;69.90;;;;;;5037502;28;20591;-77
2022/07/21 02:37:12;;;;;;;7.23;4.47;;;24.10;69.90;;;;;;5042557;28;20704;-77
2022/07/21 02:39:40;;;;;;;10.73;4.47;;;24.10;70.50;;;;;;5044590;28;20268;-77
2022/07/21 02:42:07;;;;;;;5.53;3.80;;;24.00;70.90;;;;;;5038773;28;20309;-77
2022/07/21 02:44:36;;;;;;;7.03;4.37;;;24.00;71.40;;;;;;5041526;28;20201;-77
2022/07/21 02:47:03;;;;;;;5.03;4.03;;;24.00;71.20;;;;;;5044689;28;20207;-77
2022/07/21 02:49:31;;;;;;;6.10;5.27;;;24.00;71.50;;;;;;5030778;28;20200;-77
2022/07/21 02:51:58;;;;;;;6.07;5.00;;;23.90;72.60;;;;;;5043787;28;20293;-77
2022/07/21 02:54:25;;;;;;;10.80;4.93;;;23.90;73.00;;;;;;5045773;28;20195;-77
2022/07/21 02:56:52;;;;;;;5.57;4.53;;;23.90;73.30;;;;;;5044830;28;20209;-77
2022/07/21 02:59:19;;;;;;;4.33;3.93;;;24.00;73.20;;;;;;5044544;28;20205;-77
2022/07/21 03:01:47;;;;;;;9.70;6.03;;;23.90;72.80;;;;;;5039972;28;20217;-77
2022/07/21 03:04:14;;;;;;;9.93;6.80;;;23.90;73.20;;;;;;5031861;28;20293;-77
2022/07/21 03:06:42;;;;;;;7.47;6.07;;;23.90;73.80;;;;;;5022775;28;20206;-77
2022/07/21 03:09:09;;;;;;;7.07;6.40;;;23.90;74.50;;;;;;5037648;28;20218;-77
2022/07/21 03:11:37;;;;;;;7.70;5.57;;;23.90;74.60;;;;;;5042633;28;20198;-77
2022/07/21 03:14:04;;;;;;;7.23;6.40;;;23.90;74.30;;;;;;5039015;28;20217;-77
2022/07/21 03:16:31;;;;;;;8.10;7.40;;;23.90;74.80;;;;;;5043318;28;20238;-77
2022/07/21 03:18:59;;;;;;;10.53;8.27;;;23.90;75.30;;;;;;5040980;28;20207;-77
2022/07/21 03:21:26;;;;;;;12.43;8.00;;;23.80;76.40;;;;;;5030489;28;20235;-77
2022/07/21 03:23:53;;;;;;;11.77;7.83;;;23.80;77.00;;;;;;5029663;28;20298;-78
2022/07/21 03:26:20;;;;;;;9.43;8.47;;;23.80;76.90;;;;;;5038627;28;20245;-77
2022/07/21 03:28:47;;;;;;;11.17;8.47;;;23.80;77.10;;;;;;5031432;28;20292;-77
2022/07/21 03:31:14;;;;;;;9.23;8.33;;;23.70;77.50;;;;;;5066461;28;20215;-77
2022/07/21 03:33:42;;;;;;;11.67;8.47;;;23.70;77.90;;;;;;5032337;28;20218;-77
2022/07/21 03:36:09;;;;;;;8.53;7.73;;;23.70;78.20;;;;;;5043810;28;20211;-77
2022/07/21 03:38:37;;;;;;;8.53;7.73;;;23.80;78.30;;;;;;5043435;28;20195;-77
2022/07/21 03:41:04;;;;;;;8.33;7.53;;;23.80;78.20;;;;;;5045072;28;20213;-77
2022/07/21 03:43:38;;;;;;;8.83;7.70;;;23.80;78.00;;;;;;5048545;28;20627;-77
2022/07/21 03:46:05;;;;;;;7.87;7.10;;;23.70;77.90;;;;;;5050147;28;20207;-78
2022/07/21 03:48:33;;;;;;;11.63;6.97;;;23.70;77.90;;;;;;5049839;28;20226;-78
2022/07/21 03:51:00;;;;;;;8.23;6.33;;;23.70;78.00;;;;;;5041323;28;20195;-78
2022/07/21 03:53:27;;;;;;;7.47;5.27;;;23.70;77.70;;;;;;5044213;28;20200;-78
2022/07/21 03:55:54;;;;;;;7.20;6.23;;;23.70;77.10;;;;;;5051017;28;20706;-78
2022/07/21 03:58:21;;;;;;;8.47;6.40;;;23.60;77.00;;;;;;5038277;28;20210;-78
2022/07/21 04:00:49;;;;;;;7.57;6.87;;;23.60;77.30;;;;;;5050419;28;20207;-78
2022/07/21 04:03:16;;;;;;;9.33;6.40;;;23.50;77.80;;;;;;5050705;28;20269;-78
2022/07/21 04:05:43;;;;;;;7.27;5.93;;;23.50;77.90;;;;;;5050812;28;20195;-78
2022/07/21 04:08:13;;;;;;;10.67;5.97;;;23.60;77.70;;;;;;5050708;28;20216;-78
2022/07/21 04:10:42;;;;;;;7.07;5.87;;;23.60;77.70;;;;;;5047544;28;20226;-78
2022/07/21 04:13:12;;;;;;;5.73;5.20;;;23.60;77.60;;;;;;5046430;28;20290;-77
2022/07/21 04:15:40;;;;;;;5.63;4.87;;;23.60;77.70;;;;;;5048959;28;20526;-78
2022/07/21 04:18:07;;;;;;;9.10;5.30;;;23.70;77.90;;;;;;5047086;28;20214;-78
2022/07/21 04:20:35;;;;;;;7.37;4.90;;;23.70;78.00;;;;;;5052993;28;20210;-78
2022/07/21 04:23:03;;;;;;;10.77;4.97;;;23.70;78.00;;;;;;5053292;28;20198;-77
2022/07/21 04:25:30;;;;;;;8.07;4.70;;;23.80;77.90;;;;;;5048914;28;20207;-78
2022/07/21 04:27:58;;;;;;;6.77;5.10;;;23.90;77.70;;;;;;5049819;28;20285;-78
2022/07/21 04:30:25;;;;;;;8.53;5.10;;;23.90;77.70;;;;;;5053007;28;20221;-78
2022/07/21 04:32:52;;;;;;;5.97;5.20;;;23.90;77.60;;;;;;5052140;28;20223;-78
2022/07/21 04:35:19;;;;;;;5.90;5.30;;;24.00;77.50;;;;;;5048541;28;20236;-78
2022/07/21 04:37:47;;;;;;;11.83;5.50;;;24.00;77.20;;;;;;5053919;28;20234;-77
2022/07/21 04:40:15;;;;;;;5.70;4.13;;;24.00;77.10;;;;;;5046600;28;20416;-78
2022/07/21 04:42:43;;;;;;;8.13;5.10;;;24.10;77.00;;;;;;5045083;28;20194;-78
2022/07/21 04:45:12;;;;;;;5.90;4.30;;;24.10;76.80;;;;;;5047272;28;20264;-77
2022/07/21 04:47:50;;;;;;;7.27;4.70;;;24.20;76.60;;;;;;5044503;28;20713;-77
2022/07/21 04:50:21;;;;;;;4.53;3.80;;;24.20;76.50;;;;;;5045204;28;20547;-77
2022/07/21 04:52:48;;;;;;;9.97;4.43;;;24.30;76.40;;;;;;5048676;28;20540;-77
2022/07/21 04:55:17;;;;;;;6.53;4.17;;;24.30;76.20;;;;;;5044036;28;20282;-77
2022/07/21 04:57:47;;;;;;;5.80;4.27;;;24.30;76.10;;;;;;5044677;28;20345;-77
2022/07/21 05:00:19;;;;;;;5.17;3.70;;;24.40;76.10;;;;;;5047176;28;20213;-77
2022/07/21 05:02:49;;;;;;;4.97;3.63;;;24.50;76.00;;;;;;5045635;28;20292;-77
2022/07/21 05:05:16;;;;;;;5.93;4.00;;;24.50;75.90;;;;;;5045425;28;20785;-77
2022/07/21 05:07:44;;;;;;;4.33;3.93;;;24.60;75.80;;;;;;5049164;28;20229;-77
2022/07/21 05:10:13;;;;;;;5.10;3.90;;;24.70;75.60;;;;;;5040997;28;20203;-77
2022/07/21 05:12:40;;;;;;;6.10;3.60;;;24.80;75.50;;;;;;5049134;28;20278;-78
2022/07/21 05:15:10;;;;;;;7.63;3.97;;;24.90;75.40;;;;;;5044284;28;20303;-77
2022/07/21 05:17:39;;;;;;;6.27;3.70;;;25.00;75.20;;;;;;5072853;28;20204;-78
2022/07/21 05:20:07;;;;;;;6.30;3.27;;;25.10;75.10;;;;;;5044943;28;20542;-77
2022/07/21 05:22:34;;;;;;;7.30;4.33;;;25.20;74.80;;;;;;5043517;28;20199;-77
2022/07/21 05:25:01;;;;;;;4.43;3.43;;;25.30;74.60;;;;;;5044252;28;20572;-77
2022/07/21 05:27:28;;;;;;;4.93;3.97;;;25.50;74.40;;;;;;5043248;28;20235;-77
2022/07/21 05:29:56;;;;;;;7.10;3.60;;;25.60;73.90;;;;;;5042180;28;20677;-77
2022/07/21 05:32:23;;;;;;;6.27;3.63;;;25.70;73.60;;;;;;5029089;28;20580;-77
2022/07/21 05:34:50;;;;;;;5.90;2.77;;;25.80;73.40;;;;;;5047043;28;20499;-77
2022/07/21 05:37:17;;;;;;;9.17;2.93;;;26.00;73.20;;;;;;5037612;28;20294;-77
2022/07/21 05:39:44;;;;;;;7.03;3.70;;;26.10;72.80;;;;;;5051065;28;20203;-77
2022/07/21 05:42:11;;;;;;;3.60;3.20;;;26.30;72.40;;;;;;5047181;28;20232;-77
2022/07/21 05:44:38;;;;;;;5.97;3.60;;;26.40;72.00;;;;;;5038987;28;20538;-77
2022/07/21 05:47:06;;;;;;;12.47;3.03;;;26.60;71.90;;;;;;5048296;28;20206;-77
2022/07/21 05:49:33;;;;;;;4.70;2.87;;;26.80;71.50;;;;;;5044057;28;20214;-77
2022/07/21 05:52:00;;;;;;;5.93;3.13;;;27.00;71.30;;;;;;5044315;28;20198;-77
2022/07/21 05:54:27;;;;;;;3.37;2.70;;;27.10;71.00;;;;;;5042647;28;20211;-77
2022/07/21 05:56:54;;;;;;;6.13;2.50;;;27.30;70.60;;;;;;5045353;28;20206;-78
2022/07/21 05:59:21;;;;;;;4.90;3.07;;;27.40;70.40;;;;;;5046972;28;20191;-78
2022/07/21 06:01:48;;;;;;;4.93;2.93;;;27.60;70.20;;;;;;5041701;28;20202;-78
2022/07/21 06:04:16;;;;;;;4.93;2.87;;;27.70;69.90;;;;;;5038730;28;20263;-77
2022/07/21 06:06:43;;;;;;;9.43;3.20;;;27.70;69.50;;;;;;5037544;28;20604;-77
2022/07/21 06:09:10;;;;;;;7.37;2.63;;;27.70;69.40;;;;;;5042235;28;20315;-77
2022/07/21 06:11:37;;;;;;;4.93;2.57;;;27.80;69.70;;;;;;5036948;28;20272;-77
2022/07/21 06:14:05;;;;;;;7.73;2.83;;;27.80;70.50;;;;;;5039162;28;20202;-77
2022/07/21 06:16:32;;;;;;;4.83;3.00;;;27.90;70.10;;;;;;5043445;28;20619;-77
2022/07/21 06:19:01;;;;;;;6.17;2.70;;;28.00;70.00;;;;;;5041833;28;20212;-77
2022/07/21 06:21:29;;;;;;;7.03;3.00;;;28.10;69.90;;;;;;5037304;28;20633;-77
2022/07/21 06:23:56;;;;;;;7.23;3.70;;;28.30;69.90;;;;;;5038741;28;20654;-77
2022/07/21 06:26:25;;;;;;;6.47;2.27;;;28.40;69.50;;;;;;5038429;28;20417;-77
2022/07/21 06:28:53;;;;;;;3.17;2.50;;;28.40;69.50;;;;;;5040530;28;20241;-77
2022/07/21 06:31:20;;;;;;;3.27;2.20;;;28.50;69.50;;;;;;5046654;28;20206;-77
2022/07/21 06:33:48;;;;;;;9.33;2.60;;;28.70;69.30;;;;;;5040715;28;20206;-77
2022/07/21 06:36:15;;;;;;;7.00;3.03;;;28.90;69.30;;;;;;5038426;28;20232;-77
2022/07/21 06:38:44;;;;;;;5.80;2.70;;;29.10;69.20;;;;;;5040472;28;20272;-77
2022/07/21 06:41:12;;;;;;;3.47;2.50;;;29.20;67.80;;;;;;5030251;28;20305;-77
2022/07/21 06:43:39;;;;;;;4.70;2.33;;;29.30;67.90;;;;;;5035333;28;20215;-77
2022/07/21 06:46:06;;;;;;;6.33;2.30;;;29.30;68.20;;;;;;5038642;28;20237;-77
2022/07/21 06:48:33;;;;;;;3.20;2.63;;;29.50;68.40;;;;;;5076479;28;20215;-76
2022/07/21 06:51:01;;;;;;;4.07;2.67;;;29.60;68.30;;;;;;5036751;28;20203;-77
2022/07/21 06:53:28;;;;;;;4.27;2.20;;;29.80;67.60;;;;;;5040060;28;20260;-77
2022/07/21 06:55:55;;;;;;;4.37;2.40;;;29.90;66.90;;;;;;5068406;28;20237;-77
2022/07/21 06:58:30;;;;;;;6.60;2.13;;;30.10;66.80;;;;;;5041710;28;20194;-77
2022/07/21 07:01:05;;;;;;;6.07;2.50;;;30.30;65.80;;;;;;5042934;28;20586;-77
2022/07/21 07:03:33;;;;;;;4.83;2.30;;;30.40;65.70;;;;;;5045256;28;20213;-77
2022/07/21 07:06:02;;;;;;;7.43;2.40;;;30.50;64.40;;;;;;5047319;28;20214;-77
2022/07/21 07:08:30;;;;;;;5.63;2.23;;;30.60;63.50;;;;;;5042565;28;20304;-77
2022/07/21 07:10:57;;;;;;;2.50;2.30;;;30.70;61.80;;;;;;5044769;28;20237;-77
2022/07/21 07:13:24;;;;;;;3.53;2.43;;;30.70;61.70;;;;;;5051007;28;20294;-77
2022/07/21 07:16:11;;;;;;;3.23;2.00;;;30.80;61.90;;;;;;5045684;28;20209;-77
2022/07/21 07:18:39;;;;;;;3.57;2.80;;;30.90;61.10;;;;;;5043890;28;20205;-77
2022/07/21 07:21:06;;;;;;;5.27;2.20;;;31.10;59.10;;;;;;5043753;28;20214;-77
2022/07/21 07:23:38;;;;;;;5.50;2.10;;;31.10;58.20;;;;;;5044752;28;20224;-77
2022/07/21 07:26:07;;;;;;;2.67;1.83;;;31.10;58.50;;;;;;5043151;28;20262;-77
2022/07/21 07:28:34;;;;;;;6.23;2.17;;;31.30;58.10;;;;;;5034366;28;20234;-76
2022/07/21 07:31:01;;;;;;;8.73;1.90;;;31.50;57.40;;;;;;5043243;28;20542;-77
2022/07/21 07:33:29;;;;;;;3.33;1.70;;;31.70;56.70;;;;;;5044824;28;20245;-77
2022/07/21 07:35:57;;;;;;;7.27;1.93;;;31.90;56.50;;;;;;5046402;28;20260;-77
2022/07/21 07:38:24;;;;;;;2.30;1.60;;;32.10;56.00;;;;;;5047711;28;20264;-77
2022/07/21 07:40:51;;;;;;;5.40;1.93;;;32.20;55.30;;;;;;5034915;28;20207;-77
2022/07/21 07:43:20;;;;;;;2.57;1.70;;;32.40;54.10;;;;;;5044250;28;20245;-77
2022/07/21 07:45:47;;;;;;;2.70;1.70;;;32.50;52.60;;;;;;5047668;28;20210;-77
2022/07/21 07:48:14;;;;;;;5.53;1.80;;;32.60;52.00;;;;;;5046417;28;20214;-77
2022/07/21 07:50:41;;;;;;;3.30;1.60;;;32.80;52.20;;;;;;5042991;28;20217;-77
2022/07/21 07:53:08;;;;;;;3.73;1.87;;;33.00;51.20;;;;;;5048379;28;20622;-77
2022/07/21 07:55:36;;;;;;;6.80;2.20;;;33.10;49.90;;;;;;5042497;28;20194;-77
2022/07/21 07:58:03;;;;;;;2.97;1.40;;;33.20;49.30;;;;;;5045003;28;20535;-77
2022/07/21 08:00:30;;;;;;;3.20;1.77;;;33.30;48.50;;;;;;5043825;28;20305;-77
2022/07/21 08:03:18;;;;;;;2.77;1.90;;;33.30;47.00;;;;;;5044262;28;20543;-77
2022/07/21 08:05:45;;;;;;;7.80;2.60;;;33.40;47.50;;;;;;5042927;28;20202;-77
2022/07/21 08:08:13;;;;;;;4.87;2.10;;;33.30;49.20;;;;;;5046451;28;20309;-77
2022/07/21 08:10:41;;;;;;;2.10;1.50;;;33.30;49.70;;;;;;5043171;28;20635;-77
2022/07/21 08:13:12;;;;;;;2.23;1.80;;;33.30;48.30;;;;;;5044020;28;20207;-77
2022/07/21 08:15:40;;;;;;;2.23;1.63;;;33.30;46.20;;;;;;5061422;28;20264;-77
2022/07/21 08:18:07;;;;;;;2.60;1.60;;;33.40;46.00;;;;;;5041171;28;20214;-77
2022/07/21 08:20:36;;;;;;;5.60;2.00;;;33.60;46.20;;;;;;5044463;28;20210;-77
2022/07/21 08:23:05;;;;;;;4.83;1.87;;;33.70;46.20;;;;;;5042227;28;20206;-77
2022/07/21 08:25:32;;;;;;;3.30;1.57;;;33.80;47.00;;;;;;5046049;28;20237;-77
2022/07/21 08:28:00;;;;;;;3.13;1.43;;;34.00;47.10;;;;;;5043597;28;20237;-73
2022/07/21 08:30:27;;;;;;;4.20;1.93;;;34.10;46.30;;;;;;5045754;28;20283;-73
2022/07/21 08:33:00;;;;;;;4.83;1.90;;;34.20;45.70;;;;;;5043335;28;20198;-73
2022/07/21 08:35:28;;;;;;;2.33;1.30;;;34.20;45.90;;;;;;5040295;28;20202;-74
2022/07/21 08:38:01;;;;;;;4.50;1.97;;;34.20;45.30;;;;;;5043871;28;20527;-74
2022/07/21 08:40:31;;;;;;;2.50;1.63;;;34.30;45.50;;;;;;5045096;28;20233;-74
2022/07/21 08:42:59;;;;;;;5.17;1.80;;;34.50;46.10;;;;;;5043539;28;20207;-73
2022/07/21 08:45:30;;;;;;;5.73;1.67;;;34.70;45.90;;;;;;5045812;28;20702;-74
2022/07/21 08:47:59;;;;;;;5.53;2.10;;;34.80;45.60;;;;;;5047804;28;20199;-74
2022/07/21 08:50:29;;;;;;;5.57;1.70;;;35.00;45.40;;;;;;5046757;28;20686;-74
2022/07/21 08:52:57;;;;;;;3.50;1.87;;;35.10;44.90;;;;;;5040998;28;20288;-73
2022/07/21 08:55:35;;;;;;;1.93;1.80;;;35.20;44.80;;;;;;5041834;28;20199;-73
2022/07/21 08:58:06;;;;;;;2.63;1.83;;;35.30;44.80;;;;;;5040125;28;20226;-73
2022/07/21 09:00:35;;;;;;;5.47;1.83;;;35.50;43.90;;;;;;5042834;28;20196;-74
2022/07/21 09:03:11;;;;;;;3.43;1.70;;;35.50;43.80;;;;;;5041788;28;20210;-73
2022/07/21 09:05:39;;;;;;;1.63;1.40;;;35.40;42.80;;;;;;5038233;28;20202;-74
2022/07/21 09:08:06;;;;;;;1.73;1.50;;;35.40;44.30;;;;;;5042257;28;20203;-73
2022/07/21 09:10:34;;;;;;;2.13;1.70;;;35.50;44.70;;;;;;5037801;28;20226;-74
2022/07/21 09:13:05;;;;;;;2.17;1.90;;;35.50;44.60;;;;;;5042779;28;20222;-74
2022/07/21 09:15:33;;;;;;;3.67;1.70;;;35.50;43.30;;;;;;5056924;28;20209;-74
2022/07/21 09:18:13;;;;;;;5.53;1.47;;;35.50;43.30;;;;;;5039461;28;20540;-74
2022/07/21 09:20:51;;;;;;;7.33;1.80;;;35.40;42.70;;;;;;5039428;28;20230;-74
2022/07/21 09:23:21;;;;;;;5.13;1.40;;;35.40;42.90;;;;;;5043255;28;20612;-74
2022/07/21 09:25:51;;;;;;;4.27;1.60;;;35.50;43.00;;;;;;5058709;28;20562;-74
2022/07/21 09:28:29;;;;;;;2.00;1.50;;;35.50;41.40;;;;;;5077669;28;20195;-75
2022/07/21 09:31:00;;;;;;;4.03;1.90;;;35.60;40.20;;;;;;5057555;28;20298;-75
2022/07/21 09:33:36;;;;;;;3.10;1.80;;;35.60;41.00;;;;;;5043447;28;20898;-75
2022/07/21 09:36:11;;;;;;;2.30;1.20;;;35.70;41.40;;;;;;5044909;28;20294;-74
2022/07/21 09:38:41;;;;;;;2.77;1.67;;;35.90;41.30;;;;;;5042599;28;20562;-74
2022/07/21 09:41:14;;;;;;;2.83;1.70;;;36.10;40.40;;;;;;5075531;28;20728;-74
2022/07/21 09:43:48;;;;;;;6.40;1.90;;;36.20;41.40;;;;;;5046544;28;20198;-74
2022/07/21 09:46:41;;;;;;;3.67;1.40;;;36.20;41.20;;;;;;5041424;28;20258;-75
2022/07/21 09:49:08;;;;;;;2.90;1.80;;;36.50;41.00;;;;;;5038421;28;20619;-74
2022/07/21 09:51:56;;;;;;;5.57;1.77;;;36.60;38.50;;;;;;5039583;28;20214;-74
2022/07/21 09:54:23;;;;;;;2.17;1.47;;;36.60;38.40;;;;;;5043575;28;20210;-75
2022/07/21 09:56:52;;;;;;;2.07;1.33;;;36.70;38.60;;;;;;5041235;28;20257;-75
2022/07/21 09:59:20;;;;;;;1.80;1.58;;;36.70;39.00;;;;;;5044568;28;20245;-74
2022/07/21 10:02:14;;;;;;;4.82;1.80;;;36.80;38.20;;;;;;5043827;28;20208;-74
2022/07/21 10:04:42;;;;;;;3.45;1.60;;;36.80;37.30;;;;;;5043134;28;20545;-74
2022/07/21 10:07:30;;;;;;;3.20;1.47;;;36.80;37.80;;;;;;5052222;28;20539;-74
2022/07/21 10:09:58;;;;;;;1.70;1.60;;;36.80;37.70;;;;;;5044663;28;20223;-74
2022/07/21 10:12:27;;;;;;;4.85;1.83;;;36.90;37.30;;;;;;5059679;28;20241;-74
2022/07/21 10:14:54;;;;;;;11.27;2.03;;;36.90;37.30;;;;;;5040088;28;20542;-74
2022/07/21 10:17:23;;;;;;;2.20;1.73;;;36.90;37.50;;;;;;5045575;28;20211;-75
2022/07/21 10:20:15;;;;;;;5.82;1.67;;;37.10;36.80;;;;;;5045371;28;20206;-74
2022/07/21 10:23:06;;;;;;;3.87;1.47;;;37.00;37.20;;;;;;5035270;28;20230;-74
2022/07/21 10:25:34;;;;;;;3.65;1.90;;;36.90;36.70;;;;;;5036057;28;20301;-74
2022/07/21 10:28:10;;;;;;;3.17;1.70;;;36.90;37.20;;;;;;5041643;28;20634;-74
2022/07/21 10:30:45;;;;;;;3.22;1.48;;;36.90;36.30;;;;;;5071782;28;20322;-74
2022/07/21 10:33:21;;;;;;;1.92;1.70;;;36.90;36.20;;;;;;5056683;28;20202;-74
2022/07/21 10:35:51;;;;;;;5.80;1.50;;;36.90;35.60;;;;;;5041278;28;20208;-74
2022/07/21 10:38:33;;;;;;;3.30;1.50;;;36.80;36.30;;;;;;5041993;28;20205;-74
2022/07/21 10:41:04;;;;;;;3.58;1.90;;;37.00;36.60;;;;;;5041556;28;20275;-74
2022/07/21 10:43:31;;;;;;;2.20;1.50;;;37.00;35.60;;;;;;5038760;28;20663;-74
2022/07/21 10:45:59;;;;;;;3.27;1.63;;;37.10;35.10;;;;;;5039033;28;20610;-74
2022/07/21 10:48:40;;;;;;;2.83;1.73;;;37.20;35.60;;;;;;5037454;28;20199;-74
2022/07/21 10:51:08;;;;;;;5.30;1.73;;;37.30;35.70;;;;;;5041728;28;20572;-74
2022/07/21 10:53:36;;;;;;;3.70;2.20;;;37.50;34.90;;;;;;5040125;28;20645;-74
2022/07/21 10:56:04;;;;;;;2.78;1.60;;;37.60;34.60;;;;;;5038725;28;20230;-74
2022/07/21 10:58:38;;;;;;;5.80;1.52;;;37.70;34.60;;;;;;5039607;28;20556;-74
2022/07/21 11:01:14;;;;;;;2.15;1.58;;;37.70;34.20;;;;;;5038661;28;20278;-74
2022/07/21 11:04:12;;;;;;;5.35;1.92;;;37.80;35.40;;;;;;5038181;28;20206;-74
2022/07/21 11:06:41;;;;;;;6.72;1.80;;;37.90;34.80;;;;;;5045208;28;20210;-74
2022/07/21 11:09:15;;;;;;;3.33;1.80;;;38.20;34.50;;;;;;5044557;28;20249;-74
2022/07/21 11:12:03;;;;;;;4.72;1.70;;;38.30;33.50;;;;;;5039675;28;20288;-75
2022/07/21 11:14:43;;;;;;;1.50;1.40;;;38.40;31.80;;;;;;5043251;28;20203;-75
2022/07/21 11:17:24;;;;;;;6.05;1.77;;;38.20;31.60;;;;;;5037562;28;20210;-74
2022/07/21 11:19:52;;;;;;;1.70;1.60;;;38.00;31.70;;;;;;5044109;28;20203;-74
2022/07/21 11:22:25;;;;;;;4.55;1.73;;;37.90;32.40;;;;;;5041431;28;20199;-74
2022/07/21 11:25:00;;;;;;;5.50;1.95;;;37.90;32.20;;;;;;5038604;28;20264;-74
2022/07/21 11:27:35;;;;;;;4.18;2.40;;;37.90;33.20;;;;;;5040996;28;20287;-74
2022/07/21 11:30:06;;;;;;;3.25;1.83;;;38.00;32.50;;;;;;5039304;28;20242;-75
2022/07/21 11:32:34;;;;;;;4.35;1.80;;;38.00;32.50;;;;;;5048432;28;20194;-74
2022/07/21 11:35:06;;;;;;;4.18;1.98;;;38.10;32.00;;;;;;5043344;28;20190;-74
2022/07/21 11:37:45;;;;;;;2.08;1.83;;;38.20;32.30;;;;;;5041142;28;20225;-74
2022/07/21 11:40:20;;;;;;;3.35;1.70;;;38.30;31.00;;;;;;5046647;28;20209;-74
2022/07/21 11:42:53;;;;;;;1.77;1.40;;;38.30;31.40;;;;;;5057529;28;20211;-75
2022/07/21 11:45:25;;;;;;;2.80;1.40;;;38.20;31.50;;;;;;5046796;28;20209;-74
2022/07/21 11:47:55;;;;;;;3.83;1.73;;;38.20;31.50;;;;;;5045112;28;20213;-74
2022/07/21 11:50:23;;;;;;;2.38;1.70;;;38.20;31.50;;;;;;5046190;28;20215;-73
2022/07/21 11:52:50;;;;;;;1.83;1.63;;;38.20;31.70;;;;;;5043135;28;20205;-74
2022/07/21 11:55:18;;;;;;;4.82;1.88;;;38.40;32.20;;;;;;5039424;28;20214;-75
2022/07/21 11:57:46;;;;;;;2.80;1.88;;;38.50;31.10;;;;;;5043129;28;20203;-73
2022/07/21 12:00:15;;;;;;;2.60;1.83;;;38.60;31.50;;;;;;5040994;28;20214;-74
2022/07/21 12:02:47;;;;;;;4.10;1.98;;;38.70;30.20;;;;;;5044674;28;20210;-73
2022/07/21 12:05:17;;;;;;;2.95;2.00;;;38.70;30.10;;;;;;5045636;28;20272;-74
2022/07/21 12:07:48;;;;;;;2.65;1.88;;;38.70;30.10;;;;;;5046224;28;20214;-73
2022/07/21 12:10:26;;;;;;;3.75;1.95;;;38.60;30.30;;;;;;5043930;28;20227;-74
2022/07/21 12:13:00;;;;;;;2.75;1.48;;;38.70;30.70;;;;;;5044740;28;20218;-74
2022/07/21 12:15:33;;;;;;;3.97;1.90;;;38.80;30.80;;;;;;5043996;28;20202;-74
2022/07/21 12:18:25;;;;;;;3.80;1.92;;;38.90;29.80;;;;;;5050238;28;20534;-73
2022/07/21 12:21:07;;;;;;;1.67;1.50;;;38.90;29.20;;;;;;5041668;28;20205;-75
2022/07/21 12:23:35;;;;;;;2.50;2.20;;;38.80;28.90;;;;;;5050937;28;20199;-74
2022/07/21 12:26:04;;;;;;;3.40;2.53;;;38.80;29.20;;;;;;5027584;28;20245;-74
2022/07/21 12:28:46;;;;;;;2.47;1.90;;;38.80;29.70;;;;;;5045781;28;20195;-74
2022/07/21 12:31:20;;;;;;;5.20;2.15;;;38.80;29.60;;;;;;5044863;28;20328;-75
2022/07/21 12:33:50;;;;;;;1.98;1.70;;;38.80;29.00;;;;;;5045596;28;20650;-74
2022/07/21 12:36:38;;;;;;;5.20;2.40;;;38.70;29.20;;;;;;5040411;28;20199;-74
2022/07/21 12:40:03;;;;;;;7.30;1.95;;;38.70;28.60;;;;;;5046111;28;20190;-74
2022/07/21 12:42:27;;;;;;;5.22;2.05;;;38.70;28.80;;;;;;5045185;28;20250;-74
2022/07/21 12:44:55;;;;;;;4.22;1.80;;;38.70;29.30;;;;;;5057428;28;20513;-74
2022/07/21 12:47:23;;;;;;;3.47;1.77;;;38.80;29.00;;;;;;5046947;28;20245;-74
2022/07/21 12:50:03;;;;;;;1.80;1.70;;;38.90;29.40;;;;;;5043231;28;20386;-74
2022/07/21 12:52:41;;;;;;;4.85;2.10;;;39.10;28.90;;;;;;5041739;28;20662;-74
2022/07/21 12:55:08;;;;;;;4.40;2.17;;;39.20;29.60;;;;;;5050885;28;20290;-74
2022/07/21 12:57:36;;;;;;;3.05;2.05;;;39.20;28.70;;;;;;5043750;28;20209;-74
2022/07/21 13:00:04;;;;;;;2.75;2.08;;;39.30;28.30;;;;;;5042127;28;20301;-74
2022/07/21 13:02:46;;;;;;;4.90;1.90;;;39.30;28.20;;;;;;5050313;28;20281;-74